createdAt,value
2023-01-30T00:02:12.600Z,19.30
2023-01-30T00:04:49.018Z,19.70
2023-01-30T00:07:25.076Z,19.80
2023-01-30T00:10:01.342Z,19.40
2023-01-30T00:12:37.703Z,19.10
2023-01-30T00:15:18.835Z,19.90
2023-01-30T00:17:55.206Z,19.40
2023-01-30T00:20:31.609Z,20.50
2023-01-30T00:23:07.693Z,19.70
2023-01-30T00:25:42.059Z,19.70
2023-01-30T00:28:18.940Z,20.00
2023-01-30T00:30:56.286Z,20.60
2023-01-30T00:33:31.567Z,20.50
2023-01-30T00:36:07.198Z,20.90
2023-01-30T00:38:43.639Z,20.40
2023-01-30T00:41:20.006Z,19.60
2023-01-30T00:44:12.084Z,19.20
2023-01-30T00:47:04.686Z,20.10
2023-01-30T00:49:40.963Z,19.30
2023-01-30T00:52:18.466Z,20.50
2023-01-30T00:54:53.834Z,19.40
2023-01-30T00:57:30.361Z,19.80
2023-01-30T01:00:11.667Z,19.30
2023-01-30T01:02:47.598Z,19.70
2023-01-30T01:05:22.568Z,19.80
2023-01-30T01:07:59.568Z,19.70
2023-01-30T01:10:35.508Z,19.90
2023-01-30T01:13:14.790Z,20.00
2023-01-30T01:15:50.915Z,18.40
2023-01-30T01:18:26.166Z,18.90
2023-01-30T01:21:04.149Z,18.50
2023-01-30T01:23:39.240Z,18.30
2023-01-30T01:26:15.777Z,18.90
2023-01-30T01:28:51.831Z,18.30
2023-01-30T01:31:32.279Z,17.90
2023-01-30T01:34:07.246Z,18.90
2023-01-30T01:36:59.157Z,18.30
2023-01-30T01:39:46.663Z,18.10
2023-01-30T01:42:24.739Z,19.60
2023-01-30T01:45:21.311Z,18.70
2023-01-30T01:48:05.789Z,18.90
2023-01-30T01:50:50.811Z,18.30
2023-01-30T01:53:30.084Z,19.20
2023-01-30T01:56:06.174Z,18.70
2023-01-30T01:58:46.047Z,19.00
2023-01-30T02:01:22.690Z,19.60
2023-01-30T02:04:05.276Z,18.80
2023-01-30T02:06:42.308Z,19.30
2023-01-30T02:09:19.768Z,19.60
2023-01-30T02:12:02.736Z,18.80
2023-01-30T02:14:41.988Z,19.30
2023-01-30T02:17:16.802Z,18.70
2023-01-30T02:19:58.801Z,19.10
2023-01-30T02:23:19.832Z,18.50
2023-01-30T02:26:21.937Z,18.00
2023-01-30T02:29:38.783Z,18.10
2023-01-30T02:32:23.363Z,18.00
2023-01-30T02:35:06.921Z,17.70
2023-01-30T02:37:54.486Z,17.80
2023-01-30T02:40:42.688Z,18.20
2023-01-30T02:43:26.226Z,16.80
2023-01-30T02:46:10.721Z,18.00
2023-01-30T02:48:49.713Z,17.80
2023-01-30T02:51:32.461Z,16.90
2023-01-30T02:54:12.707Z,16.40
2023-01-30T02:56:52.718Z,16.80
2023-01-30T02:59:44.702Z,16.20
2023-01-30T03:03:07.439Z,15.80
2023-01-30T03:05:55.974Z,16.60
2023-01-30T03:08:43.193Z,15.80
2023-01-30T03:11:18.799Z,16.00
2023-01-30T03:14:02.074Z,15.60
2023-01-30T03:16:39.259Z,15.00
2023-01-30T03:19:15.578Z,15.80
2023-01-30T03:21:50.365Z,15.40
2023-01-30T03:24:26.190Z,15.70
2023-01-30T03:27:13.186Z,15.40
2023-01-30T03:29:48.374Z,15.30
2023-01-30T03:32:23.214Z,14.70
2023-01-30T03:34:58.930Z,14.80
2023-01-30T03:37:35.130Z,15.40
2023-01-30T03:40:15.058Z,14.90
2023-01-30T03:42:50.356Z,14.60
2023-01-30T03:45:24.931Z,14.60
2023-01-30T03:48:01.584Z,13.80
2023-01-30T03:50:40.650Z,14.10
2023-01-30T03:53:15.336Z,14.30
2023-01-30T03:55:51.901Z,14.30
2023-01-30T03:58:31.721Z,14.80
2023-01-30T04:01:08.234Z,14.20
2023-01-30T04:03:44.280Z,14.00
2023-01-30T04:06:20.158Z,14.10
2023-01-30T04:08:57.821Z,15.00
2023-01-30T04:11:43.152Z,14.10
2023-01-30T04:14:17.283Z,15.20
2023-01-30T04:17:14.946Z,14.60
2023-01-30T04:20:14.342Z,13.50
2023-01-30T04:22:54.522Z,13.00
2023-01-30T04:25:29.931Z,13.20
2023-01-30T04:28:07.611Z,13.20
2023-01-30T04:30:43.526Z,12.90
2023-01-30T04:33:35.579Z,13.30
2023-01-30T04:36:14.530Z,14.30
2023-01-30T04:38:49.230Z,13.70
2023-01-30T04:41:25.384Z,14.00
2023-01-30T04:44:04.494Z,14.00
2023-01-30T04:47:06.419Z,13.70
2023-01-30T04:49:41.058Z,14.20
2023-01-30T04:52:16.813Z,29.30
2023-01-30T04:54:51.239Z,14.10
2023-01-30T04:57:25.731Z,14.10
2023-01-30T05:00:00.965Z,29.20
2023-01-30T05:02:36.842Z,14.50
2023-01-30T05:05:12.495Z,14.00
2023-01-30T05:07:53.168Z,14.50
2023-01-30T05:10:27.969Z,15.50
2023-01-30T05:13:06.681Z,14.90
2023-01-30T05:15:44.680Z,15.00
2023-01-30T05:18:18.453Z,15.40
2023-01-30T05:20:56.342Z,15.60
2023-01-30T05:23:33.135Z,15.30
2023-01-30T05:26:10.163Z,14.40
2023-01-30T05:28:45.814Z,15.20
2023-01-30T05:31:20.452Z,15.30
2023-01-30T05:33:58.014Z,15.10
2023-01-30T05:36:33.327Z,15.00
2023-01-30T05:39:08.206Z,14.80
2023-01-30T05:41:44.804Z,14.80
2023-01-30T05:44:22.747Z,15.40
2023-01-30T05:46:56.668Z,15.40
2023-01-30T05:49:31.747Z,15.50
2023-01-30T05:52:07.357Z,14.90
2023-01-30T05:54:42.960Z,15.60
2023-01-30T05:57:18.585Z,15.10
2023-01-30T05:59:53.241Z,15.80
2023-01-30T06:02:28.225Z,15.60
2023-01-30T06:05:03.837Z,15.40
2023-01-30T06:07:37.793Z,16.10
2023-01-30T06:10:20.162Z,15.30
2023-01-30T06:12:55.151Z,15.30
2023-01-30T06:15:29.388Z,15.20
2023-01-30T06:18:05.896Z,14.10
2023-01-30T06:20:41.879Z,14.20
2023-01-30T06:23:18.157Z,14.70
2023-01-30T06:25:56.409Z,13.90
2023-01-30T06:28:32.859Z,13.90
2023-01-30T06:31:10.788Z,13.80
2023-01-30T06:33:47.266Z,13.70
2023-01-30T06:36:23.011Z,14.10
2023-01-30T06:38:57.928Z,14.00
2023-01-30T06:41:34.879Z,13.90
2023-01-30T06:44:09.609Z,13.70
2023-01-30T06:46:43.807Z,14.10
2023-01-30T06:49:18.496Z,13.50
2023-01-30T06:51:54.169Z,14.50
2023-01-30T06:54:29.074Z,13.80
2023-01-30T06:57:03.911Z,14.00
2023-01-30T06:59:38.829Z,14.30
2023-01-30T07:02:14.610Z,13.90
2023-01-30T07:04:49.849Z,14.00
2023-01-30T07:07:24.961Z,13.90
2023-01-30T07:10:07.771Z,14.50
2023-01-30T07:12:44.007Z,17.00
2023-01-30T07:15:21.244Z,15.10
2023-01-30T07:17:55.638Z,13.80
2023-01-30T07:20:32.017Z,15.00
2023-01-30T07:23:08.997Z,13.90
2023-01-30T07:25:43.608Z,15.00
2023-01-30T07:28:18.771Z,15.30
2023-01-30T07:30:54.309Z,15.00
2023-01-30T07:33:28.955Z,14.40
2023-01-30T07:36:04.396Z,15.00
2023-01-30T07:38:39.703Z,14.70
2023-01-30T07:41:14.539Z,15.20
2023-01-30T07:43:50.552Z,15.10
2023-01-30T07:46:25.746Z,15.40
2023-01-30T07:49:01.088Z,15.00
2023-01-30T07:51:37.293Z,15.90
2023-01-30T07:54:14.071Z,15.50
2023-01-30T07:56:48.078Z,15.00
2023-01-30T07:59:23.058Z,15.30
2023-01-30T08:01:58.923Z,15.30
2023-01-30T08:04:34.642Z,14.70
2023-01-30T08:07:11.778Z,15.30
2023-01-30T08:09:52.642Z,23.10
2023-01-30T08:12:29.515Z,17.50
2023-01-30T08:15:04.800Z,16.50
2023-01-30T08:17:39.746Z,15.60
2023-01-30T08:20:18.748Z,16.50
2023-01-30T08:22:55.124Z,15.90
2023-01-30T08:25:37.299Z,15.60
2023-01-30T08:28:14.191Z,16.00
2023-01-30T08:30:49.819Z,18.30
2023-01-30T08:33:29.841Z,19.20
2023-01-30T08:36:04.696Z,19.80
2023-01-30T08:38:40.873Z,19.00
2023-01-30T08:41:15.179Z,23.50
2023-01-30T08:43:50.568Z,19.20
2023-01-30T08:46:28.751Z,17.10
2023-01-30T08:49:05.544Z,19.40
2023-01-30T08:51:40.161Z,15.30
2023-01-30T08:54:15.640Z,17.40
2023-01-30T08:56:52.747Z,14.90
2023-01-30T08:59:26.555Z,17.20
2023-01-30T09:02:01.358Z,13.10
2023-01-30T09:04:38.527Z,15.40
2023-01-30T09:07:13.248Z,14.30
2023-01-30T09:09:50.797Z,13.60
2023-01-30T09:12:25.548Z,13.70
2023-01-30T09:15:02.875Z,13.70
2023-01-30T09:17:40.200Z,13.90
2023-01-30T09:20:22.432Z,12.00
2023-01-30T09:22:59.205Z,12.20
2023-01-30T09:25:35.126Z,14.20
2023-01-30T09:28:09.673Z,13.60
2023-01-30T09:30:46.718Z,13.00
2023-01-30T09:33:22.317Z,13.00
2023-01-30T09:35:57.715Z,13.50
2023-01-30T09:38:34.187Z,13.50
2023-01-30T09:41:29.213Z,20.20
2023-01-30T09:44:41.960Z,14.40
2023-01-30T09:47:25.722Z,14.70
2023-01-30T09:50:19.110Z,13.50
2023-01-30T09:53:06.074Z,13.90
2023-01-30T09:55:44.528Z,13.10
2023-01-30T09:58:23.899Z,13.50
2023-01-30T10:01:09.740Z,13.30
2023-01-30T10:03:56.829Z,14.60
2023-01-30T10:06:33.337Z,14.30
2023-01-30T10:09:16.082Z,13.20
2023-01-30T10:12:10.141Z,14.50
2023-01-30T10:15:08.132Z,12.70
2023-01-30T10:17:56.665Z,12.40
2023-01-30T10:20:39.828Z,15.40
2023-01-30T10:23:29.711Z,13.30
2023-01-30T10:26:11.997Z,12.90
2023-01-30T10:29:06.571Z,12.60
2023-01-30T10:31:48.140Z,13.90
2023-01-30T10:34:30.410Z,13.00
2023-01-30T10:37:11.719Z,16.30
2023-01-30T10:39:57.636Z,19.10
2023-01-30T10:42:41.471Z,18.70
2023-01-30T10:45:26.783Z,15.80
2023-01-30T10:48:19.802Z,15.10
2023-01-30T10:51:00.093Z,14.70
2023-01-30T10:53:49.531Z,14.50
2023-01-30T10:56:33.738Z,17.30
2023-01-30T10:59:35.874Z,15.80
2023-01-30T11:02:27.283Z,17.60
2023-01-30T11:05:20.025Z,14.40
2023-01-30T11:07:55.822Z,16.50
2023-01-30T11:10:51.886Z,16.10
2023-01-30T11:13:34.144Z,16.70
2023-01-30T11:16:16.318Z,15.80
2023-01-30T11:19:19.446Z,15.60
2023-01-30T11:22:12.800Z,13.70
2023-01-30T11:25:14.899Z,13.30
2023-01-30T11:28:03.646Z,16.00
2023-01-30T11:30:48.260Z,18.70
2023-01-30T11:33:34.691Z,18.60
2023-01-30T11:36:32.610Z,18.20
2023-01-30T11:39:23.589Z,16.00
2023-01-30T11:42:14.427Z,19.30
2023-01-30T11:45:10.844Z,18.90
2023-01-30T11:48:03.660Z,18.10
2023-01-30T11:50:49.457Z,17.20
2023-01-30T11:53:32.708Z,17.90
2023-01-30T11:56:44.555Z,16.20
2023-01-30T11:59:29.069Z,18.20
2023-01-30T12:02:20.113Z,22.00
2023-01-30T12:05:01.627Z,20.10
2023-01-30T12:07:48.552Z,20.50
2023-01-30T12:10:34.425Z,16.60
2023-01-30T12:13:25.669Z,13.40
2023-01-30T12:16:32.739Z,13.30
2023-01-30T12:19:24.733Z,14.30
2023-01-30T12:22:09.595Z,12.40
2023-01-30T12:24:59.379Z,11.60
2023-01-30T12:30:40.907Z,15.80
2023-01-30T12:33:23.979Z,14.00
2023-01-30T12:36:13.349Z,13.00
2023-01-30T12:39:08.273Z,13.20
2023-01-30T12:42:04.643Z,12.60
2023-01-30T12:44:57.177Z,12.70
2023-01-30T12:47:57.150Z,10.90
2023-01-30T12:50:49.707Z,12.00
2023-01-30T12:53:45.864Z,9.90
2023-01-30T12:56:45.555Z,9.90
2023-01-30T12:59:29.955Z,9.70
2023-01-30T13:02:26.890Z,10.20
2023-01-30T13:05:25.578Z,10.20
2023-01-30T13:08:14.014Z,9.70
2023-01-30T13:10:59.532Z,8.30
2023-01-30T13:13:46.874Z,9.90
2023-01-30T13:16:37.233Z,8.30
2023-01-30T13:19:21.163Z,8.20
2023-01-30T13:22:07.727Z,10.30
2023-01-30T13:24:58.331Z,7.30
2023-01-30T13:27:37.725Z,8.60
2023-01-30T13:30:20.403Z,8.90
2023-01-30T13:33:02.527Z,10.70
2023-01-30T13:35:42.725Z,9.70
2023-01-30T13:38:21.358Z,9.80
2023-01-30T13:41:03.367Z,12.20
2023-01-30T13:43:44.822Z,6.90
2023-01-30T13:46:25.934Z,7.30
2023-01-30T13:49:11.957Z,7.80
2023-01-30T13:51:58.255Z,6.70
2023-01-30T13:54:46.715Z,7.60
2023-01-30T13:57:31.156Z,6.80
2023-01-30T14:00:43.990Z,9.60
2023-01-30T14:03:44.284Z,6.90
2023-01-30T14:06:53.704Z,6.80
2023-01-30T14:09:34.097Z,6.30
2023-01-30T14:12:21.318Z,5.40
2023-01-30T14:15:06.913Z,73.60
2023-01-30T14:17:59.573Z,12.30
2023-01-30T14:20:40.281Z,8.30
2023-01-30T14:23:27.590Z,8.60
2023-01-30T14:26:03.645Z,6.30
2023-01-30T14:28:55.724Z,6.90
2023-01-30T14:31:56.151Z,14.90
2023-01-30T14:34:49.837Z,4.40
2023-01-30T14:37:52.904Z,4.10
2023-01-30T14:40:43.880Z,4.60
2023-01-30T14:43:54.628Z,3.90
2023-01-30T14:46:59.263Z,4.60
2023-01-30T14:49:37.582Z,5.20
2023-01-30T14:52:40.224Z,5.80
2023-01-30T14:55:29.650Z,6.30
2023-01-30T14:58:17.681Z,5.40
2023-01-30T15:01:06.222Z,5.10
2023-01-30T15:03:47.882Z,5.90
2023-01-30T15:06:27.206Z,5.70
2023-01-30T15:09:03.315Z,6.30
2023-01-30T15:11:40.305Z,7.10
2023-01-30T15:14:21.423Z,6.90
2023-01-30T15:17:07.711Z,7.10
2023-01-30T15:19:58.077Z,7.00
2023-01-30T15:22:47.782Z,7.90
2023-01-30T15:25:40.619Z,10.20
2023-01-30T15:28:30.928Z,10.00
2023-01-30T15:31:18.253Z,11.80
2023-01-30T15:33:57.097Z,9.70
2023-01-30T15:36:35.286Z,10.40
2023-01-30T15:39:21.800Z,14.30
2023-01-30T15:42:02.869Z,18.20
2023-01-30T15:45:03.162Z,19.20
2023-01-30T15:47:55.950Z,14.20
2023-01-30T15:50:33.007Z,14.60
2023-01-30T15:53:17.447Z,11.20
2023-01-30T15:55:55.584Z,9.30
2023-01-30T15:58:33.576Z,9.60
2023-01-30T16:01:09.276Z,9.00
2023-01-30T16:03:47.770Z,11.00
2023-01-30T16:06:38.618Z,11.50
2023-01-30T16:09:24.506Z,7.30
2023-01-30T16:11:59.081Z,8.10
2023-01-30T16:14:36.336Z,7.50
2023-01-30T16:17:15.907Z,7.70
2023-01-30T16:19:50.834Z,9.40
2023-01-30T16:22:25.799Z,10.60
2023-01-30T16:25:04.785Z,7.10
2023-01-30T16:27:42.199Z,7.80
2023-01-30T16:30:22.908Z,7.80
2023-01-30T16:33:00.145Z,10.00
2023-01-30T16:35:38.269Z,7.10
2023-01-30T16:38:39.753Z,8.50
2023-01-30T16:41:55.106Z,7.30
2023-01-30T16:44:34.533Z,7.20
2023-01-30T16:47:24.519Z,6.30
2023-01-30T16:50:01.505Z,7.00
2023-01-30T16:52:41.437Z,6.20
2023-01-30T16:55:26.835Z,6.80
2023-01-30T16:58:04.688Z,6.90
2023-01-30T17:00:41.608Z,5.90
2023-01-30T17:03:26.317Z,6.20
2023-01-30T17:06:06.700Z,5.00
2023-01-30T17:08:55.504Z,3.50
2023-01-30T17:11:38.123Z,3.60
2023-01-30T17:14:31.461Z,3.50
2023-01-30T17:17:10.701Z,3.50
2023-01-30T17:19:49.203Z,4.00
2023-01-30T17:22:25.122Z,3.60
2023-01-30T17:25:04.919Z,3.50
2023-01-30T17:27:44.127Z,3.40
2023-01-30T17:30:22.175Z,3.90
2023-01-30T17:32:57.701Z,5.20
2023-01-30T17:35:37.067Z,4.90
2023-01-30T17:38:14.027Z,4.30
2023-01-30T17:40:49.413Z,4.10
2023-01-30T17:43:23.345Z,5.00
2023-01-30T17:45:57.971Z,5.60
2023-01-30T17:48:34.275Z,4.70
2023-01-30T17:51:08.913Z,4.30
2023-01-30T17:53:44.147Z,4.10
2023-01-30T17:56:25.221Z,3.80
2023-01-30T17:59:01.300Z,3.80
2023-01-30T18:01:40.247Z,3.70
2023-01-30T18:04:15.232Z,3.70
2023-01-30T18:06:52.687Z,3.80
2023-01-30T18:09:29.200Z,3.30
2023-01-30T18:12:06.255Z,3.70
2023-01-30T18:14:42.161Z,3.20
2023-01-30T18:17:16.636Z,4.20
2023-01-30T18:19:55.151Z,4.10
2023-01-30T18:22:30.532Z,3.00
2023-01-30T18:25:05.867Z,3.20
2023-01-30T18:27:44.557Z,4.00
2023-01-30T18:30:26.294Z,7.10
2023-01-30T18:33:01.503Z,5.50
2023-01-30T18:35:39.763Z,3.80
2023-01-30T18:38:15.052Z,5.80
2023-01-30T18:40:50.558Z,10.90
2023-01-30T18:43:28.216Z,5.00
2023-01-30T18:46:12.996Z,9.50
2023-01-30T18:48:49.847Z,7.10
2023-01-30T18:51:28.445Z,3.70
2023-01-30T18:54:03.426Z,6.90
2023-01-30T18:56:42.511Z,4.40
2023-01-30T18:59:17.765Z,6.80
2023-01-30T19:01:53.653Z,3.10
2023-01-30T19:04:30.059Z,3.90
2023-01-30T19:07:09.101Z,11.50
2023-01-30T19:09:53.003Z,8.80
2023-01-30T19:12:46.898Z,16.00
2023-01-30T19:15:22.760Z,6.90
2023-01-30T19:17:58.764Z,10.00
2023-01-30T19:20:33.050Z,5.20
2023-01-30T19:23:11.009Z,6.50
2023-01-30T19:25:55.534Z,3.50
2023-01-30T19:28:40.070Z,25.60
2023-01-30T19:31:17.368Z,5.80
2023-01-30T19:33:58.556Z,4.50
2023-01-30T19:36:37.361Z,5.70
2023-01-30T19:39:13.887Z,9.00
2023-01-30T19:41:48.270Z,11.20
2023-01-30T19:44:24.198Z,6.90
2023-01-30T19:47:15.412Z,6.80
2023-01-30T19:49:51.059Z,6.40
2023-01-30T19:52:27.741Z,8.40
2023-01-30T19:55:02.926Z,3.90
2023-01-30T19:57:40.550Z,3.60
2023-01-30T20:00:23.848Z,5.90
2023-01-30T20:03:00.827Z,9.90
2023-01-30T20:05:36.733Z,4.10
2023-01-30T20:08:25.508Z,4.70
2023-01-30T20:11:08.339Z,3.80
2023-01-30T20:13:45.525Z,3.40
2023-01-30T20:16:25.584Z,3.40
2023-01-30T20:19:05.857Z,3.60
2023-01-30T20:21:41.248Z,3.50
2023-01-30T20:24:18.015Z,2.60
2023-01-30T20:26:55.028Z,3.50
2023-01-30T20:29:32.814Z,3.00
2023-01-30T20:32:08.770Z,3.60
2023-01-30T20:34:44.630Z,3.10
2023-01-30T20:37:19.538Z,2.60
2023-01-30T20:39:57.397Z,3.00
2023-01-30T20:42:33.504Z,2.90
2023-01-30T20:45:10.974Z,2.80
2023-01-30T20:47:46.273Z,3.20
2023-01-30T20:50:22.639Z,2.80
2023-01-30T20:52:58.671Z,2.60
2023-01-30T20:55:32.989Z,3.00
2023-01-30T20:58:09.709Z,3.10
2023-01-30T21:00:47.636Z,2.90
2023-01-30T21:03:22.917Z,3.40
2023-01-30T21:06:05.301Z,3.20
2023-01-30T21:08:42.796Z,2.90
2023-01-30T21:11:20.291Z,3.20
2023-01-30T21:13:55.368Z,3.30
2023-01-30T21:16:32.964Z,3.30
2023-01-30T21:19:13.653Z,3.40
2023-01-30T21:21:54.812Z,3.60
2023-01-30T21:24:31.720Z,3.40
2023-01-30T21:27:09.383Z,3.50
2023-01-30T21:29:43.553Z,3.50
2023-01-30T21:32:20.294Z,3.40
2023-01-30T21:34:58.192Z,3.60
2023-01-30T21:37:50.158Z,3.50
2023-01-30T21:40:43.218Z,3.80
2023-01-30T21:43:21.961Z,3.90
2023-01-30T21:46:01.828Z,3.30
2023-01-30T21:48:36.574Z,3.90
2023-01-30T21:51:17.400Z,3.90
2023-01-30T21:53:52.623Z,3.90
2023-01-30T21:56:29.031Z,4.20
2023-01-30T21:59:05.502Z,4.20
2023-01-30T22:01:41.272Z,3.60
2023-01-30T22:04:17.805Z,3.60
2023-01-30T22:06:52.358Z,3.80
2023-01-30T22:09:28.033Z,3.90
2023-01-30T22:12:02.120Z,3.90
2023-01-30T22:14:37.832Z,3.50
2023-01-30T22:17:13.288Z,3.90
2023-01-30T22:19:47.967Z,3.80
2023-01-30T22:22:26.073Z,3.70
2023-01-30T22:25:02.964Z,3.60
2023-01-30T22:27:42.483Z,3.30
2023-01-30T22:30:20.340Z,3.50
2023-01-30T22:32:58.018Z,4.10
2023-01-30T22:35:33.446Z,3.60
2023-01-30T22:38:10.206Z,3.50
2023-01-30T22:40:44.868Z,3.70
2023-01-30T22:43:20.354Z,3.80
2023-01-30T22:46:01.183Z,3.60
2023-01-30T22:48:37.179Z,4.10
2023-01-30T22:51:14.289Z,3.20
2023-01-30T22:53:50.977Z,3.40
2023-01-30T22:56:28.686Z,3.30
2023-01-30T22:59:03.615Z,3.50
2023-01-30T23:01:40.060Z,3.80
2023-01-30T23:04:19.531Z,3.30
2023-01-30T23:06:56.512Z,3.30
2023-01-30T23:09:33.238Z,3.10
2023-01-30T23:12:26.446Z,3.40
2023-01-30T23:15:01.208Z,3.20
2023-01-30T23:17:53.378Z,3.40
2023-01-30T23:20:28.053Z,3.30
2023-01-30T23:23:03.315Z,3.00
2023-01-30T23:25:41.042Z,3.30
2023-01-30T23:28:15.551Z,3.00
2023-01-30T23:30:51.653Z,3.30
2023-01-30T23:33:27.290Z,3.00
2023-01-30T23:36:07.824Z,2.90
2023-01-30T23:38:44.640Z,3.40
2023-01-30T23:41:20.361Z,3.00
2023-01-30T23:43:59.446Z,3.10
2023-01-30T23:46:40.080Z,3.00
2023-01-30T23:49:16.647Z,2.40
2023-01-30T23:51:51.490Z,3.10
2023-01-30T23:54:26.369Z,3.20
2023-01-30T23:57:01.231Z,3.30
2023-01-30T23:59:37.406Z,3.60
